Time;durP1;ratioP1;P1;durP2;ratioP2;P2;SDS_P1;SDS_P2;PMS_P1;PMS_P2;Temp;Humidity;BMP_temperature;BMP_pressure;BME280_temperature;BME280_humidity;BME280_pressure;Samples;Min_cycle;Max_cycle;Signal;HPM_P1;HPM_P2
2023/05/13 00:00:41;;;;;;;10.90;6.97;;;11.80;99.90;;;;;;5090660;28;20036;-88
2023/05/13 00:03:07;;;;;;;11.18;6.40;;;11.80;99.90;;;;;;5073987;28;20032;-88
2023/05/13 00:05:33;;;;;;;9.18;6.30;;;11.80;99.90;;;;;;5074186;28;20055;-88
2023/05/13 00:08:05;;;;;;;9.45;6.60;;;11.70;99.90;;;;;;5107996;28;20112;-88
2023/05/13 00:10:32;;;;;;;10.82;5.72;;;11.70;99.90;;;;;;5109235;28;20471;-87
2023/05/13 00:12:58;;;;;;;8.13;5.75;;;11.70;99.90;;;;;;5091609;28;20405;-86
2023/05/13 00:15:24;;;;;;;8.68;6.70;;;11.70;99.90;;;;;;5108759;28;20047;-88
2023/05/13 00:17:50;;;;;;;13.55;5.10;;;11.70;99.90;;;;;;5091295;28;20122;-87
2023/05/13 00:20:16;;;;;;;11.15;5.18;;;11.70;99.90;;;;;;5108071;28;20396;-87
2023/05/13 00:22:41;;;;;;;10.40;5.03;;;11.70;99.90;;;;;;5074490;28;20059;-88
2023/05/13 00:25:07;;;;;;;21.23;6.85;;;11.70;99.90;;;;;;5090207;28;20071;-88
2023/05/13 00:27:34;;;;;;;8.70;5.15;;;11.60;99.90;;;;;;5108656;28;20051;-88
2023/05/13 00:30:00;;;;;;;9.85;5.28;;;11.60;99.90;;;;;;5089932;28;20075;-87
2023/05/13 00:32:25;;;;;;;6.45;5.10;;;11.60;99.90;;;;;;5091077;28;20101;-88
2023/05/13 00:34:51;;;;;;;8.63;4.78;;;11.50;99.90;;;;;;5073358;28;20089;-88
2023/05/13 00:37:17;;;;;;;10.82;6.18;;;11.50;99.90;;;;;;5090087;28;20087;-88
2023/05/13 00:39:43;;;;;;;9.15;5.57;;;11.50;99.90;;;;;;5107728;28;20044;-88
2023/05/13 00:42:11;;;;;;;22.67;6.95;;;11.50;99.90;;;;;;5089595;28;20071;-87
2023/05/13 00:44:37;;;;;;;9.98;6.38;;;11.50;99.90;;;;;;5090952;28;20506;-87
2023/05/13 00:47:06;;;;;;;12.18;6.00;;;11.50;99.90;;;;;;5089612;28;20515;-87
2023/05/13 00:49:35;;;;;;;10.90;6.95;;;11.40;99.90;;;;;;5090755;28;20397;-88
2023/05/13 00:52:02;;;;;;;9.15;5.88;;;11.40;99.90;;;;;;5107580;28;20114;-88
2023/05/13 00:54:28;;;;;;;16.55;6.22;;;11.40;99.90;;;;;;5089591;28;20047;-88
2023/05/13 00:56:55;;;;;;;14.55;5.78;;;11.40;99.90;;;;;;5107230;28;20044;-88
2023/05/13 00:59:27;;;;;;;10.85;6.63;;;11.40;99.90;;;;;;5089547;28;20043;-87
2023/05/13 01:02:19;;;;;;;7.90;5.70;;;11.40;99.90;;;;;;5090251;28;20559;-88
2023/05/13 01:05:22;;;;;;;8.65;5.65;;;11.40;99.90;;;;;;5095659;28;20523;-87
2023/05/13 01:08:03;;;;;;;11.95;6.03;;;11.30;99.90;;;;;;5106007;28;20093;-88
2023/05/13 01:10:46;;;;;;;10.35;6.30;;;11.30;99.90;;;;;;5090171;28;20040;-87
2023/05/13 01:13:13;;;;;;;;;;;11.30;99.90;;;;;;5089888;28;20081;-87
2023/05/13 01:15:46;;;;;;;11.35;6.00;;;11.20;99.90;;;;;;5106403;28;19919;-87
2023/05/13 01:18:18;;;;;;;6.43;5.75;;;11.20;99.90;;;;;;5089647;28;20439;-88
2023/05/13 01:20:44;;;;;;;8.77;6.40;;;11.20;99.90;;;;;;5106400;28;20031;-88
2023/05/13 01:23:11;;;;;;;10.88;6.93;;;11.50;99.90;;;;;;5090282;28;20058;-88
2023/05/13 01:25:40;;;;;;;13.45;7.57;;;11.20;99.90;;;;;;5089250;28;20043;-87
2023/05/13 01:28:06;;;;;;;11.48;6.43;;;11.30;99.90;;;;;;5101908;28;20039;-88
2023/05/13 01:30:33;;;;;;;13.40;6.95;;;11.10;99.90;;;;;;5089177;28;20036;-87
2023/05/13 01:32:59;;;;;;;11.93;7.43;;;11.10;99.90;;;;;;5072377;28;20050;-87
2023/05/13 01:35:27;;;;;;;15.52;7.30;;;11.00;99.90;;;;;;5089191;28;20100;-88
2023/05/13 01:37:55;;;;;;;14.65;7.13;;;11.10;99.90;;;;;;5105499;28;20085;-87
2023/05/13 01:40:22;;;;;;;11.65;7.57;;;11.60;99.90;;;;;;5089501;28;20043;-87
2023/05/13 01:42:47;;;;;;;16.50;7.90;;;11.10;99.90;;;;;;5088814;28;20595;-88
2023/05/13 01:45:14;;;;;;;15.02;7.50;;;11.10;99.90;;;;;;5089414;28;20188;-88
2023/05/13 01:47:40;;;;;;;11.93;7.63;;;11.10;99.90;;;;;;5089122;28;20048;-88
2023/05/13 01:50:07;;;;;;;11.23;7.32;;;11.10;99.90;;;;;;5071589;28;20061;-87
2023/05/13 01:52:33;;;;;;;12.45;8.45;;;11.10;99.90;;;;;;5106556;28;20070;-88
2023/05/13 01:54:58;;;;;;;13.32;8.02;;;11.00;99.90;;;;;;5088124;28;20484;-87
2023/05/13 01:57:25;;;;;;;12.90;8.55;;;11.00;99.90;;;;;;5088951;28;20097;-88
2023/05/13 01:59:51;;;;;;;12.65;8.35;;;11.80;99.90;;;;;;5088830;28;20086;-88
2023/05/13 02:02:17;;;;;;;13.27;8.65;;;11.00;99.90;;;;;;5072223;28;20050;-87
2023/05/13 02:04:43;;;;;;;11.90;8.15;;;11.00;99.90;;;;;;5088403;28;20351;-88
2023/05/13 02:07:09;;;;;;;13.57;8.00;;;11.00;99.90;;;;;;5072363;28;20122;-87
2023/05/13 02:09:34;;;;;;;13.20;8.45;;;11.00;99.90;;;;;;5088844;28;20507;-88
2023/05/13 02:12:00;;;;;;;12.38;7.60;;;11.00;99.90;;;;;;5088538;28;20047;-87
2023/05/13 02:14:26;;;;;;;8.95;6.90;;;10.90;99.90;;;;;;5089130;28;20039;-87
2023/05/13 02:16:51;;;;;;;11.88;7.53;;;10.90;99.90;;;;;;5070881;28;20816;-87
2023/05/13 02:19:18;;;;;;;12.57;7.57;;;10.90;99.90;;;;;;5071976;28;20036;-87
2023/05/13 02:21:44;;;;;;;13.88;7.68;;;10.90;99.90;;;;;;5070851;28;20539;-88
2023/05/13 02:24:10;;;;;;;13.23;7.45;;;10.90;99.90;;;;;;5089167;28;20047;-88
2023/05/13 02:26:35;;;;;;;13.65;6.75;;;10.90;99.90;;;;;;5088526;28;20499;-88
2023/05/13 02:29:01;;;;;;;16.23;7.57;;;11.30;99.90;;;;;;5088275;28;20124;-88
2023/05/13 02:31:27;;;;;;;10.23;7.55;;;10.80;99.90;;;;;;5088973;28;20131;-88
2023/05/13 02:33:53;;;;;;;12.98;7.88;;;11.30;99.90;;;;;;5088505;28;20066;-87
2023/05/13 02:36:19;;;;;;;14.02;8.45;;;10.80;99.90;;;;;;5106519;28;20130;-88
2023/05/13 02:38:44;;;;;;;15.50;7.82;;;10.80;99.90;;;;;;5105072;28;20576;-87
2023/05/13 02:41:10;;;;;;;12.13;6.55;;;10.80;99.90;;;;;;5088977;28;20417;-87
2023/05/13 02:43:36;;;;;;;11.18;6.95;;;10.90;99.90;;;;;;5071500;28;20048;-88
2023/05/13 02:46:02;;;;;;;13.10;7.68;;;10.70;99.90;;;;;;5087149;28;20114;-88
2023/05/13 02:48:28;;;;;;;11.25;7.25;;;11.40;99.90;;;;;;5105192;28;20498;-87
2023/05/13 02:50:54;;;;;;;8.40;6.35;;;10.60;99.90;;;;;;5070502;28;20134;-87
2023/05/13 02:53:19;;;;;;;12.05;8.15;;;10.50;99.90;;;;;;5108261;28;20139;-88
2023/05/13 02:55:45;;;;;;;12.52;8.05;;;11.00;99.90;;;;;;5079455;28;20068;-88
2023/05/13 02:58:12;;;;;;;11.05;7.25;;;10.40;99.90;;;;;;5095115;28;20059;-88
2023/05/13 03:00:37;;;;;;;11.10;6.95;;;10.40;99.90;;;;;;5095798;28;20576;-88
2023/05/13 03:03:03;;;;;;;12.95;7.22;;;10.50;99.90;;;;;;5094055;28;20040;-88
2023/05/13 03:05:29;;;;;;;19.23;9.38;;;10.80;99.90;;;;;;5094190;28;20039;-88
2023/05/13 03:07:56;;;;;;;17.52;8.07;;;11.70;99.90;;;;;;5095675;28;20063;-88
2023/05/13 03:10:23;;;;;;;18.33;8.30;;;10.80;99.90;;;;;;5095170;28;20044;-87
2023/05/13 03:12:49;;;;;;;17.88;9.07;;;10.10;99.90;;;;;;5076159;28;20111;-87
2023/05/13 03:15:15;;;;;;;8.85;7.13;;;10.10;99.90;;;;;;5089831;28;20073;-87
2023/05/13 03:17:43;;;;;;;15.35;8.35;;;10.10;99.90;;;;;;5090615;28;20330;-87
2023/05/13 03:20:09;;;;;;;12.50;7.68;;;10.00;99.90;;;;;;5072874;28;20047;-88
2023/05/13 03:22:37;;;;;;;13.35;7.90;;;10.00;99.90;;;;;;5109352;28;20393;-87
2023/05/13 03:25:07;;;;;;;11.35;6.88;;;10.00;99.90;;;;;;5074954;28;20183;-89
2023/05/13 03:27:32;;;;;;;9.85;6.55;;;9.90;99.90;;;;;;5073208;28;20503;-87
2023/05/13 03:29:58;;;;;;;10.48;8.27;;;10.00;99.90;;;;;;5072340;28;20504;-88
2023/05/13 03:32:29;;;;;;;15.43;7.72;;;10.60;99.90;;;;;;5105538;28;20150;-86
2023/05/13 03:34:59;;;;;;;15.07;9.45;;;9.80;99.90;;;;;;5105895;28;20059;-87
2023/05/13 03:37:26;;;;;;;14.02;9.20;;;9.80;99.90;;;;;;5090762;28;20678;-86
2023/05/13 03:39:51;;;;;;;22.00;11.18;;;9.90;99.90;;;;;;5108029;28;20076;-87
2023/05/13 03:42:19;;;;;;;19.27;10.27;;;9.90;99.90;;;;;;5087773;28;20043;-87
2023/05/13 03:44:45;;;;;;;18.05;11.93;;;9.30;99.90;;;;;;5052940;28;20135;-86
2023/05/13 03:47:10;;;;;;;13.85;10.23;;;10.10;99.90;;;;;;5086755;28;20499;-87
2023/05/13 03:49:36;;;;;;;17.40;10.93;;;10.10;99.90;;;;;;5086189;28;20071;-87
2023/05/13 03:52:02;;;;;;;17.25;11.38;;;11.10;99.90;;;;;;5103253;28;20392;-87
2023/05/13 03:54:27;;;;;;;18.60;10.75;;;10.20;99.90;;;;;;5069593;28;20130;-87
2023/05/13 03:56:53;;;;;;;19.52;10.27;;;10.30;99.90;;;;;;5086387;28;20039;-87
2023/05/13 03:59:19;;;;;;;19.98;10.43;;;10.30;99.90;;;;;;5086409;28;20071;-87
2023/05/13 04:01:45;;;;;;;13.32;10.70;;;10.40;99.90;;;;;;5086166;28;20134;-87
2023/05/13 04:04:10;;;;;;;14.80;10.13;;;10.40;99.90;;;;;;5102910;28;20083;-87
2023/05/13 04:06:36;;;;;;;17.95;9.85;;;11.10;99.90;;;;;;5085477;28;20047;-87
2023/05/13 04:09:03;;;;;;;21.10;10.57;;;10.50;99.90;;;;;;5103143;28;20060;-87
2023/05/13 04:11:30;;;;;;;13.43;9.38;;;10.50;99.90;;;;;;5119682;28;20126;-87
2023/05/13 04:13:56;;;;;;;19.70;9.13;;;10.50;99.90;;;;;;5086648;28;20405;-87
2023/05/13 04:16:22;;;;;;;11.95;9.07;;;11.30;99.90;;;;;;5102682;28;20036;-87
2023/05/13 04:18:48;;;;;;;18.67;9.30;;;10.60;99.90;;;;;;5085637;28;20057;-87
2023/05/13 04:21:13;;;;;;;17.67;9.38;;;11.30;99.90;;;;;;5069623;28;20123;-87
2023/05/13 04:23:39;;;;;;;19.50;9.30;;;10.60;99.90;;;;;;5084980;28;20035;-87
2023/05/13 04:26:05;;;;;;;19.02;9.38;;;10.60;99.90;;;;;;5069535;28;20046;-87
2023/05/13 04:28:30;;;;;;;16.92;7.78;;;10.60;99.90;;;;;;5068335;28;20043;-87
2023/05/13 04:30:56;;;;;;;19.52;9.43;;;10.60;99.90;;;;;;5069208;28;20035;-87
2023/05/13 04:33:22;;;;;;;12.77;8.10;;;11.20;99.90;;;;;;5068034;28;20130;-87
2023/05/13 04:35:47;;;;;;;24.70;8.32;;;10.90;99.90;;;;;;5102846;28;20040;-87
2023/05/13 04:38:13;;;;;;;14.40;8.68;;;11.60;99.90;;;;;;5102329;28;20031;-87
2023/05/13 04:40:39;;;;;;;13.55;7.90;;;10.80;99.90;;;;;;5068437;28;20048;-88
2023/05/13 04:43:04;;;;;;;12.80;7.97;;;11.40;99.90;;;;;;5086330;28;20047;-86
2023/05/13 04:45:30;;;;;;;18.60;8.80;;;10.80;99.90;;;;;;5086279;28;20039;-86
2023/05/13 04:47:56;;;;;;;14.40;8.32;;;10.90;99.90;;;;;;5089532;28;20917;-86
2023/05/13 04:50:22;;;;;;;16.00;7.85;;;10.90;99.90;;;;;;5106005;27;20492;-87
2023/05/13 04:52:48;;;;;;;18.20;9.15;;;11.60;99.90;;;;;;5089023;28;20090;-87
2023/05/13 04:55:14;;;;;;;14.32;7.95;;;11.00;99.90;;;;;;5106244;28;20043;-87
2023/05/13 04:57:39;;;;;;;17.60;7.85;;;11.10;99.90;;;;;;5106270;28;20050;-88
2023/05/13 05:00:08;;;;;;;15.88;8.32;;;11.20;99.90;;;;;;5089810;28;20437;-86
2023/05/13 05:02:34;;;;;;;18.38;8.68;;;11.30;99.90;;;;;;5088799;28;20397;-87
2023/05/13 05:05:00;;;;;;;21.45;8.30;;;11.30;99.90;;;;;;5106331;28;20047;-88
2023/05/13 05:07:25;;;;;;;12.48;7.72;;;11.40;99.90;;;;;;5071809;28;20040;-88
2023/05/13 05:09:51;;;;;;;13.65;7.88;;;11.50;99.90;;;;;;5105878;28;20089;-88
2023/05/13 05:12:17;;;;;;;11.15;6.80;;;11.70;99.90;;;;;;5089302;28;20073;-87
2023/05/13 05:14:43;;;;;;;15.93;8.00;;;12.60;99.90;;;;;;5088310;28;20043;-88
2023/05/13 05:17:09;;;;;;;13.65;7.68;;;11.70;99.90;;;;;;5089257;28;20040;-87
2023/05/13 05:19:34;;;;;;;15.52;8.43;;;11.70;99.90;;;;;;5087941;28;20561;-87
2023/05/13 05:22:00;;;;;;;14.18;8.07;;;11.80;99.90;;;;;;5105754;28;20079;-88
2023/05/13 05:24:26;;;;;;;12.63;7.38;;;11.90;99.90;;;;;;5088956;28;20085;-88
2023/05/13 05:26:52;;;;;;;12.32;7.13;;;12.00;99.90;;;;;;5088696;28;20130;-87
2023/05/13 05:29:17;;;;;;;15.70;7.88;;;12.00;99.90;;;;;;5071206;28;20039;-86
2023/05/13 05:31:43;;;;;;;9.48;5.68;;;12.20;99.90;;;;;;5088054;28;20036;-89
2023/05/13 05:34:09;;;;;;;15.35;7.88;;;12.20;99.90;;;;;;5104997;28;20052;-87
2023/05/13 05:36:35;;;;;;;9.80;6.43;;;12.30;99.90;;;;;;5071256;28;20040;-89
2023/05/13 05:39:00;;;;;;;21.73;7.38;;;12.40;99.90;;;;;;5071815;28;20071;-90
2023/05/13 05:41:26;;;;;;;11.15;6.32;;;12.50;99.90;;;;;;5070978;28;20054;-89
2023/05/13 05:43:52;;;;;;;10.88;6.45;;;12.60;99.90;;;;;;5071744;28;20031;-89
2023/05/13 05:46:17;;;;;;;13.85;7.10;;;12.70;99.90;;;;;;5088115;28;20044;-89
2023/05/13 05:48:43;;;;;;;19.80;6.85;;;12.80;99.90;;;;;;5088242;28;20044;-89
2023/05/13 05:51:09;;;;;;;13.40;6.90;;;12.90;99.90;;;;;;5071139;28;20130;-88
2023/05/13 05:53:36;;;;;;;15.75;6.72;;;13.00;99.90;;;;;;5087428;28;20051;-90
2023/05/13 05:56:03;;;;;;;12.57;6.45;;;13.10;99.90;;;;;;5088163;28;20039;-88
2023/05/13 05:58:28;;;;;;;15.00;6.35;;;13.10;99.90;;;;;;5086677;28;20071;-88
2023/05/13 06:00:55;;;;;;;14.40;6.30;;;13.20;99.90;;;;;;5088492;28;20082;-88
2023/05/13 06:03:21;;;;;;;12.23;6.65;;;13.40;99.90;;;;;;5087881;28;20421;-86
2023/05/13 06:05:47;;;;;;;9.65;5.90;;;13.50;99.90;;;;;;5105114;28;20054;-88
2023/05/13 06:08:12;;;;;;;8.75;6.10;;;13.60;99.90;;;;;;5104924;27;20048;-89
2023/05/13 06:10:38;;;;;;;22.38;13.27;;;13.60;99.90;;;;;;5087141;28;20043;-86
2023/05/13 06:13:04;;;;;;;16.25;6.70;;;13.70;99.90;;;;;;5088120;28;20047;-87
2023/05/13 06:15:30;;;;;;;13.07;6.57;;;13.80;99.90;;;;;;5087398;28;20038;-85
2023/05/13 06:17:56;;;;;;;13.40;6.93;;;13.90;99.90;;;;;;5087842;28;20040;-85
2023/05/13 06:20:22;;;;;;;13.63;6.38;;;14.00;99.90;;;;;;5087749;28;20748;-85
2023/05/13 06:22:48;;;;;;;11.18;6.93;;;14.10;99.90;;;;;;5088701;28;20123;-87
2023/05/13 06:25:14;;;;;;;11.88;6.93;;;14.20;99.90;;;;;;5088942;28;20096;-84
2023/05/13 06:27:39;;;;;;;10.10;6.35;;;14.30;99.90;;;;;;5104608;28;20053;-85
2023/05/13 06:30:05;;;;;;;8.38;5.47;;;14.40;99.90;;;;;;5088618;28;20113;-85
2023/05/13 06:32:32;;;;;;;8.68;5.78;;;14.50;99.90;;;;;;5105357;28;20047;-86
2023/05/13 06:34:58;;;;;;;9.80;5.60;;;14.60;99.90;;;;;;5088412;28;20093;-86
2023/05/13 06:37:24;;;;;;;12.80;5.95;;;15.10;99.90;;;;;;5104305;28;20142;-88
2023/05/13 06:39:50;;;;;;;11.70;6.20;;;14.80;99.90;;;;;;5104170;28;20043;-88
2023/05/13 06:42:15;;;;;;;8.45;5.32;;;14.90;99.90;;;;;;5087035;28;20403;-87
2023/05/13 06:44:41;;;;;;;13.98;6.50;;;14.90;99.90;;;;;;5104056;28;20043;-87
2023/05/13 06:47:09;;;;;;;12.05;5.50;;;15.00;99.90;;;;;;5087085;28;20519;-84
2023/05/13 06:49:34;;;;;;;9.77;5.85;;;15.10;99.90;;;;;;5069497;28;20135;-83
2023/05/13 06:52:00;;;;;;;7.63;6.10;;;15.20;99.90;;;;;;5087140;28;20079;-86
2023/05/13 06:54:26;;;;;;;10.18;5.35;;;15.20;99.90;;;;;;5069487;28;20039;-85
2023/05/13 06:56:53;;;;;;;10.30;6.00;;;15.30;99.90;;;;;;5086491;28;20048;-83
2023/05/13 06:59:20;;;;;;;7.18;5.35;;;15.40;99.90;;;;;;5103688;28;20046;-84
2023/05/13 07:01:46;;;;;;;12.45;5.63;;;15.50;99.90;;;;;;5086508;28;20040;-84
2023/05/13 07:04:11;;;;;;;9.35;5.07;;;15.60;99.90;;;;;;5086104;28;20042;-85
2023/05/13 07:06:37;;;;;;;8.43;4.97;;;15.70;99.90;;;;;;5102843;28;20134;-83
2023/05/13 07:09:03;;;;;;;10.00;5.97;;;15.80;99.90;;;;;;5086537;28;20229;-85
2023/05/13 07:11:29;;;;;;;10.23;4.90;;;15.80;99.90;;;;;;5102746;28;20567;-85
2023/05/13 07:13:55;;;;;;;17.85;6.88;;;15.90;99.90;;;;;;5086453;28;20126;-86
2023/05/13 07:16:20;;;;;;;13.88;5.97;;;16.00;99.90;;;;;;5103686;28;20569;-86
2023/05/13 07:18:46;;;;;;;13.48;4.80;;;16.10;99.90;;;;;;5102695;28;20381;-85
2023/05/13 07:21:13;;;;;;;12.88;5.57;;;16.20;99.90;;;;;;5069476;28;20046;-83
2023/05/13 07:23:39;;;;;;;7.30;4.97;;;16.30;99.90;;;;;;5103083;28;20040;-82
2023/05/13 07:26:05;;;;;;;11.25;4.72;;;16.40;99.90;;;;;;5102992;28;20500;-81
2023/05/13 07:28:30;;;;;;;11.98;4.78;;;16.50;99.90;;;;;;5103143;28;20043;-81
2023/05/13 07:30:57;;;;;;;6.38;4.78;;;16.60;99.90;;;;;;5086149;28;20500;-81
2023/05/13 07:33:22;;;;;;;7.85;5.55;;;16.70;99.90;;;;;;5103287;28;20054;-82
2023/05/13 07:35:48;;;;;;;8.35;4.35;;;16.80;99.90;;;;;;5102535;28;20408;-81
2023/05/13 07:38:14;;;;;;;9.75;4.75;;;17.00;99.90;;;;;;5086211;28;20047;-83
2023/05/13 07:40:40;;;;;;;10.27;4.78;;;17.10;99.90;;;;;;5085194;28;20046;-82
2023/05/13 07:43:07;;;;;;;11.07;4.40;;;17.20;99.90;;;;;;5086045;28;20233;-81
2023/05/13 07:45:33;;;;;;;8.55;4.65;;;17.60;99.90;;;;;;5068570;28;20052;-82
2023/05/13 07:47:59;;;;;;;15.93;4.78;;;17.40;99.90;;;;;;5103021;27;20533;-82
2023/05/13 07:50:24;;;;;;;9.43;4.40;;;17.50;99.90;;;;;;5102186;28;20090;-82
2023/05/13 07:52:50;;;;;;;7.85;4.70;;;17.60;99.90;;;;;;5086302;28;20043;-82
2023/05/13 07:55:16;;;;;;;13.90;4.63;;;17.70;99.90;;;;;;5102911;28;20404;-83
2023/05/13 07:57:42;;;;;;;8.65;4.50;;;17.70;99.90;;;;;;5067742;28;20039;-83
2023/05/13 08:00:09;;;;;;;8.70;4.10;;;17.90;99.90;;;;;;5102994;28;20095;-82
2023/05/13 08:02:37;;;;;;;10.13;4.07;;;18.00;99.90;;;;;;5085388;28;20087;-82
2023/05/13 08:05:04;;;;;;;7.72;4.20;;;18.10;99.90;;;;;;5102646;28;20393;-82
2023/05/13 08:07:30;;;;;;;19.02;5.43;;;18.20;99.90;;;;;;5068987;28;20048;-82
2023/05/13 08:09:55;;;;;;;11.52;5.60;;;18.30;99.90;;;;;;5085057;28;20408;-82
2023/05/13 08:12:21;;;;;;;8.55;3.72;;;18.30;99.90;;;;;;5069098;28;20050;-83
2023/05/13 08:14:47;;;;;;;7.80;3.67;;;18.40;99.90;;;;;;5102106;28;20046;-82
2023/05/13 08:17:12;;;;;;;10.70;4.85;;;18.50;99.90;;;;;;5068852;28;20552;-84
2023/05/13 08:19:39;;;;;;;8.90;3.67;;;18.60;99.90;;;;;;5084781;28;20113;-82
2023/05/13 08:22:05;;;;;;;11.07;4.38;;;18.80;99.90;;;;;;5106398;28;20058;-80
2023/05/13 08:24:30;;;;;;;7.88;4.43;;;18.90;99.90;;;;;;5089020;28;20126;-80
2023/05/13 08:26:56;;;;;;;5.18;3.78;;;19.00;99.90;;;;;;5089127;28;20057;-80
2023/05/13 08:29:22;;;;;;;7.80;3.75;;;19.10;99.90;;;;;;5089087;28;20051;-81
2023/05/13 08:31:47;;;;;;;7.18;3.90;;;19.30;99.90;;;;;;5088861;28;20134;-81
2023/05/13 08:34:13;;;;;;;7.93;3.78;;;19.40;99.90;;;;;;5072638;28;20055;-81
2023/05/13 08:36:39;;;;;;;8.60;4.00;;;19.50;99.90;;;;;;5105615;28;20156;-81
2023/05/13 08:39:06;;;;;;;10.60;4.65;;;19.60;99.90;;;;;;5089407;28;20153;-81
2023/05/13 08:41:33;;;;;;;10.35;4.28;;;19.70;99.90;;;;;;5072363;28;20042;-80
2023/05/13 08:44:01;;;;;;;8.77;3.60;;;19.80;99.90;;;;;;5106633;28;20919;-81
2023/05/13 08:46:28;;;;;;;8.80;3.38;;;19.80;99.90;;;;;;5106147;28;20050;-81
2023/05/13 08:48:54;;;;;;;12.25;3.83;;;19.80;99.90;;;;;;5105791;28;20051;-83
2023/05/13 08:51:20;;;;;;;5.75;3.40;;;19.90;99.90;;;;;;5106052;28;20515;-81
2023/05/13 08:53:47;;;;;;;8.43;3.55;;;20.00;99.90;;;;;;5088220;28;20054;-82
2023/05/13 08:56:13;;;;;;;6.63;3.33;;;20.10;99.90;;;;;;5105902;28;20484;-82
2023/05/13 08:58:40;;;;;;;7.07;3.40;;;20.20;99.90;;;;;;5105493;28;20070;-82
2023/05/13 09:01:08;;;;;;;8.38;3.88;;;20.40;99.90;;;;;;5071344;28;20043;-83
2023/05/13 09:03:38;;;;;;;12.32;3.50;;;20.50;99.90;;;;;;5105476;28;20039;-82
2023/05/13 09:06:04;;;;;;;7.25;3.28;;;20.50;99.90;;;;;;5122518;27;20113;-82
2023/05/13 09:08:31;;;;;;;8.52;4.50;;;20.60;99.90;;;;;;5106981;28;20528;-85
2023/05/13 09:10:57;;;;;;;9.88;3.97;;;20.60;99.90;;;;;;5071229;28;20043;-80
2023/05/13 09:13:22;;;;;;;5.40;3.10;;;20.70;99.90;;;;;;5089169;28;20291;-80
2023/05/13 09:15:50;;;;;;;7.03;3.33;;;20.80;99.90;;;;;;5088243;28;20050;-82
2023/05/13 09:18:15;;;;;;;9.45;3.00;;;20.90;99.90;;;;;;5105583;28;20044;-81
2023/05/13 09:20:41;;;;;;;5.03;3.17;;;21.00;99.90;;;;;;5071517;28;20411;-81
2023/05/13 09:23:09;;;;;;;9.25;4.38;;;21.00;99.90;;;;;;5088733;28;20047;-80
2023/05/13 09:25:38;;;;;;;12.43;4.28;;;19.80;99.90;;;;;;5089638;28;20564;-82
2023/05/13 09:28:06;;;;;;;10.10;3.70;;;21.10;99.90;;;;;;5088622;28;20040;-81
2023/05/13 09:30:40;;;;;;;5.20;3.65;;;21.10;99.90;;;;;;5105665;28;20466;-80
2023/05/13 09:33:13;;;;;;;9.77;4.38;;;21.10;99.90;;;;;;5088687;28;20052;-79
2023/05/13 09:35:43;;;;;;;7.55;4.18;;;21.00;99.90;;;;;;5104678;28;20078;-79
2023/05/13 09:38:17;;;;;;;10.13;3.47;;;21.10;99.90;;;;;;5105677;28;20048;-79
2023/05/13 09:40:54;;;;;;;9.65;3.67;;;21.20;99.90;;;;;;5104666;28;20076;-81
2023/05/13 09:43:21;;;;;;;6.82;3.40;;;21.30;99.90;;;;;;5105348;28;20108;-80
2023/05/13 09:45:52;;;;;;;8.85;4.03;;;21.40;99.90;;;;;;5087798;28;20093;-80
2023/05/13 09:48:21;;;;;;;9.30;3.90;;;21.50;99.90;;;;;;5105447;28;20109;-80
2023/05/13 09:50:48;;;;;;;8.20;4.45;;;21.50;99.90;;;;;;5105355;28;20400;-79
2023/05/13 09:53:14;;;;;;;10.77;3.92;;;21.60;99.90;;;;;;5087605;28;20046;-80
2023/05/13 09:55:48;;;;;;;9.60;4.03;;;21.50;99.90;;;;;;5088965;28;20432;-80
2023/05/13 09:58:14;;;;;;;6.07;3.17;;;21.60;99.90;;;;;;5087311;28;20052;-78
2023/05/13 10:00:41;;;;;;;9.88;3.92;;;21.80;99.90;;;;;;5088075;28;20051;-78
2023/05/13 10:03:07;;;;;;;10.35;3.42;;;21.90;99.90;;;;;;5087315;28;20044;-80
2023/05/13 10:05:33;;;;;;;6.50;3.63;;;22.00;99.90;;;;;;5104835;28;20040;-79
2023/05/13 10:08:00;;;;;;;6.88;3.97;;;22.20;99.90;;;;;;5105143;28;20493;-79
2023/05/13 10:10:31;;;;;;;10.25;3.53;;;22.30;99.90;;;;;;5070005;28;20051;-82
2023/05/13 10:13:12;;;;;;;11.63;4.03;;;22.40;99.90;;;;;;5071823;28;20400;-81
2023/05/13 10:15:54;;;;;;;7.90;3.28;;;22.30;99.90;;;;;;5087643;28;20095;-81
2023/05/13 10:18:22;;;;;;;10.80;3.40;;;22.20;99.90;;;;;;5086981;28;20492;-82
2023/05/13 10:20:54;;;;;;;9.73;3.40;;;22.20;99.90;;;;;;5087122;28;20040;-82
2023/05/13 10:23:22;;;;;;;7.72;3.72;;;22.20;99.90;;;;;;5087659;28;20119;-77
2023/05/13 10:25:49;;;;;;;11.02;3.40;;;22.20;99.90;;;;;;5071128;28;20084;-78
2023/05/13 10:28:15;;;;;;;19.00;5.05;;;22.30;99.90;;;;;;5103897;28;20048;-77
2023/05/13 10:30:42;;;;;;;6.65;4.07;;;22.50;99.90;;;;;;5104218;28;20054;-77
2023/05/13 10:33:09;;;;;;;9.07;3.47;;;22.60;99.90;;;;;;5104194;28;20059;-78
2023/05/13 10:35:39;;;;;;;8.90;3.75;;;22.60;99.90;;;;;;5086779;28;20130;-79
2023/05/13 10:38:43;;;;;;;11.75;3.15;;;22.70;99.90;;;;;;5087304;28;20051;-79
2023/05/13 10:41:59;;;;;;;5.55;2.97;;;22.90;99.90;;;;;;5103569;28;20621;-81
2023/05/13 10:44:25;;;;;;;6.53;3.35;;;23.10;99.90;;;;;;5014979;28;20509;-79
2023/05/13 10:46:51;;;;;;;6.78;3.40;;;23.20;99.90;;;;;;5105693;28;20164;-79
2023/05/13 10:49:17;;;;;;;7.88;2.95;;;23.30;99.90;;;;;;5086351;28;20092;-79
2023/05/13 10:51:48;;;;;;;10.48;3.50;;;23.40;99.90;;;;;;5120902;27;20040;-79
2023/05/13 10:54:25;;;;;;;8.82;3.08;;;23.60;99.90;;;;;;5103155;28;20559;-79
2023/05/13 10:56:58;;;;;;;12.43;3.58;;;23.80;99.90;;;;;;5102971;28;20056;-79
2023/05/13 10:59:24;;;;;;;6.72;3.35;;;23.90;99.90;;;;;;5103168;28;20189;-79
2023/05/13 11:01:52;;;;;;;9.13;3.70;;;23.90;99.90;;;;;;5086399;28;20361;-79
2023/05/13 11:04:20;;;;;;;13.30;3.97;;;24.00;99.90;;;;;;5086628;28;20081;-80
2023/05/13 11:06:47;;;;;;;8.30;4.10;;;24.10;99.90;;;;;;5086393;28;20354;-80
2023/05/13 11:09:28;;;;;;;11.25;4.28;;;24.00;99.90;;;;;;5086102;28;20122;-80
2023/05/13 11:11:55;;;;;;;10.18;4.05;;;23.90;99.90;;;;;;5087923;28;20499;-80
2023/05/13 11:14:23;;;;;;;7.13;4.60;;;23.90;99.90;;;;;;5085736;28;20355;-81
2023/05/13 11:17:05;;;;;;;8.57;4.70;;;24.00;99.90;;;;;;5069776;28;20071;-78
2023/05/13 11:19:36;;;;;;;11.50;3.97;;;23.80;99.90;;;;;;5102196;28;20055;-81
2023/05/13 11:22:25;;;;;;;10.35;4.40;;;23.60;99.90;;;;;;5086103;28;20056;-81
2023/05/13 11:25:06;;;;;;;7.82;4.40;;;23.50;99.90;;;;;;5085120;28;20039;-80
2023/05/13 11:27:37;;;;;;;9.20;4.13;;;23.30;99.90;;;;;;5101807;28;20035;-80
2023/05/13 11:30:06;;;;;;;9.60;5.13;;;23.30;99.90;;;;;;5102964;28;20044;-81
2023/05/13 11:32:50;;;;;;;9.00;4.10;;;23.40;99.90;;;;;;5103682;28;20059;-81
2023/05/13 11:35:27;;;;;;;9.15;3.95;;;23.60;99.90;;;;;;5084976;28;20117;-81
2023/05/13 11:38:00;;;;;;;12.68;7.00;;;23.70;99.90;;;;;;5103071;28;20054;-81
2023/05/13 11:40:34;;;;;;;9.52;4.38;;;23.60;99.90;;;;;;5085085;28;20050;-84
2023/05/13 11:43:00;;;;;;;10.40;5.10;;;23.60;99.90;;;;;;5102722;28;20051;-79
2023/05/13 11:45:27;;;;;;;10.50;4.47;;;23.50;99.90;;;;;;5102485;28;20032;-80
2023/05/13 11:47:53;;;;;;;7.78;4.40;;;23.50;99.90;;;;;;5103713;28;20042;-80
2023/05/13 11:50:29;;;;;;;9.30;4.32;;;23.30;99.90;;;;;;5101825;28;20725;-80
2023/05/13 11:53:00;;;;;;;11.93;4.95;;;23.30;99.90;;;;;;5101916;28;20341;-81
2023/05/13 11:55:29;;;;;;;11.07;4.55;;;23.60;99.90;;;;;;5101859;28;20040;-80
2023/05/13 11:57:56;;;;;;;6.93;4.47;;;23.60;99.90;;;;;;5103551;28;20043;-80
2023/05/13 12:00:26;;;;;;;8.50;4.53;;;23.70;99.90;;;;;;5119316;28;20052;-80
2023/05/13 12:02:53;;;;;;;6.68;3.50;;;23.80;99.90;;;;;;5102389;28;20211;-80
2023/05/13 12:05:19;;;;;;;6.38;3.90;;;23.90;99.90;;;;;;5102502;28;20054;-81
2023/05/13 12:07:45;;;;;;;16.23;4.88;;;23.90;99.90;;;;;;5102930;28;20834;-80
2023/05/13 12:10:11;;;;;;;8.50;4.50;;;24.00;99.90;;;;;;5103289;28;20079;-79
2023/05/13 12:12:39;;;;;;;14.13;5.15;;;24.00;99.90;;;;;;5102461;28;20109;-81
2023/05/13 12:15:11;;;;;;;10.65;4.82;;;23.80;99.90;;;;;;5102953;28;20130;-80
2023/05/13 12:17:37;;;;;;;12.18;5.05;;;23.80;99.90;;;;;;5102424;28;20124;-79
2023/05/13 12:20:10;;;;;;;8.50;4.38;;;23.60;99.90;;;;;;5102330;28;20416;-80
2023/05/13 12:22:42;;;;;;;7.93;4.40;;;23.40;99.90;;;;;;5101963;28;20051;-79
2023/05/13 12:25:39;;;;;;;8.32;4.13;;;23.60;99.80;;;;;;5085634;28;20496;-80
2023/05/13 12:28:15;;;;;;;8.05;4.05;;;23.70;99.60;;;;;;5103623;28;20047;-80
2023/05/13 12:31:03;;;;;;;9.38;4.13;;;23.70;99.90;;;;;;5085635;28;20039;-80
2023/05/13 12:33:39;;;;;;;6.90;4.30;;;23.90;99.90;;;;;;5102372;28;20058;-80
2023/05/13 12:36:20;;;;;;;9.40;5.30;;;24.00;99.90;;;;;;5103123;28;20110;-80
2023/05/13 12:39:06;;;;;;;10.35;4.32;;;23.90;99.90;;;;;;5103466;28;20554;-79
2023/05/13 12:41:36;;;;;;;7.35;3.65;;;23.70;99.10;;;;;;5101869;28;20489;-81
2023/05/13 12:44:12;;;;;;;5.35;3.40;;;23.60;99.90;;;;;;5102407;28;20359;-80